createdAt,value
2023-01-01T00:01:09.192Z,5.35
2023-01-01T00:04:14.442Z,5.44
2023-01-01T00:07:16.459Z,5.44
2023-01-01T00:10:30.868Z,5.31
2023-01-01T00:13:33.869Z,5.33
2023-01-01T00:16:36.354Z,5.43
2023-01-01T00:19:38.803Z,5.17
2023-01-01T00:22:53.960Z,5.11
2023-01-01T00:25:56.813Z,5.32
2023-01-01T00:28:59.042Z,5.33
2023-01-01T00:32:01.742Z,5.37
2023-01-01T00:35:03.971Z,5.29
2023-01-01T00:38:07.150Z,5.12
2023-01-01T00:41:09.743Z,5.09
2023-01-01T00:44:11.852Z,5.23
2023-01-01T00:47:13.915Z,5.28
2023-01-01T00:50:16.462Z,5.40
2023-01-01T00:53:19.761Z,5.07
2023-01-01T00:56:22.195Z,5.18
2023-01-01T00:59:28.692Z,5.07
2023-01-01T01:02:31.500Z,5.17
2023-01-01T01:05:37.379Z,5.20
2023-01-01T01:08:42.009Z,5.15
2023-01-01T01:11:44.442Z,5.02
2023-01-01T01:14:47.482Z,5.01
2023-01-01T01:17:49.801Z,5.04
2023-01-01T01:20:53.260Z,5.05
2023-01-01T01:23:58.211Z,5.01
2023-01-01T01:27:00.221Z,4.99
2023-01-01T01:30:02.406Z,5.05
2023-01-01T01:33:06.106Z,5.17
2023-01-01T01:36:08.297Z,5.19
2023-01-01T01:39:12.640Z,5.18
2023-01-01T01:42:18.805Z,5.05
2023-01-01T01:45:21.262Z,4.98
2023-01-01T01:48:25.220Z,5.07
2023-01-01T01:51:37.676Z,5.10
2023-01-01T01:54:41.028Z,4.41
2023-01-01T01:57:43.270Z,4.63
2023-01-01T02:00:45.539Z,4.87
2023-01-01T02:03:58.858Z,4.91
2023-01-01T02:07:01.027Z,4.74
2023-01-01T02:10:03.989Z,4.75
2023-01-01T02:13:06.656Z,4.82
2023-01-01T02:16:45.953Z,4.86
2023-01-01T02:20:32.028Z,4.92
2023-01-01T02:23:35.088Z,4.82
2023-01-01T02:26:49.459Z,4.67
2023-01-01T02:30:01.025Z,4.50
2023-01-01T02:33:12.390Z,4.65
2023-01-01T02:36:16.383Z,4.73
2023-01-01T02:39:22.939Z,4.65
2023-01-01T02:42:28.734Z,4.39
2023-01-01T02:45:31.664Z,4.21
2023-01-01T02:48:49.864Z,4.29
2023-01-01T02:52:01.744Z,4.51
2023-01-01T02:55:19.661Z,4.43
2023-01-01T02:59:12.152Z,4.49
2023-01-01T03:02:17.292Z,4.52
2023-01-01T03:06:10.452Z,4.33
2023-01-01T03:09:26.583Z,3.95
2023-01-01T03:12:43.648Z,4.00
2023-01-01T03:16:03.354Z,4.06
2023-01-01T03:19:12.209Z,4.01
2023-01-01T03:22:17.406Z,4.03
2023-01-01T03:25:26.444Z,4.01
2023-01-01T03:28:37.874Z,3.94
2023-01-01T03:31:45.181Z,4.02
2023-01-01T03:34:52.963Z,4.23
2023-01-01T03:37:58.767Z,4.32
2023-01-01T03:41:05.414Z,4.54
2023-01-01T03:44:23.698Z,4.61
2023-01-01T03:47:25.931Z,4.51
2023-01-01T03:50:55.231Z,4.35
2023-01-01T03:54:02.246Z,4.23
2023-01-01T03:57:08.283Z,4.29
2023-01-01T04:00:16.443Z,4.12
2023-01-01T04:03:27.648Z,4.30
2023-01-01T04:06:30.235Z,4.39
2023-01-01T04:09:40.576Z,4.43
2023-01-01T04:12:52.277Z,4.72
2023-01-01T04:15:54.350Z,4.68
2023-01-01T04:18:56.642Z,4.54
2023-01-01T04:21:58.804Z,4.36
2023-01-01T04:25:00.965Z,4.44
2023-01-01T04:28:03.700Z,4.54
2023-01-01T04:31:05.698Z,4.40
2023-01-01T04:34:08.132Z,4.28
2023-01-01T04:37:13.333Z,4.10
2023-01-01T04:40:16.286Z,4.02
2023-01-01T04:43:18.600Z,4.15
2023-01-01T04:46:22.999Z,4.30
2023-01-01T04:49:25.853Z,4.23
2023-01-01T04:52:28.010Z,4.02
2023-01-01T04:55:30.477Z,3.96
2023-01-01T04:58:33.850Z,4.18
2023-01-01T05:01:36.773Z,4.08
2023-01-01T05:04:40.625Z,4.13
2023-01-01T05:07:43.287Z,4.32
2023-01-01T05:10:48.206Z,4.50
2023-01-01T05:13:53.143Z,4.34
2023-01-01T05:16:55.622Z,4.21
2023-01-01T05:19:58.655Z,4.29
2023-01-01T05:23:00.904Z,4.12
2023-01-01T05:26:17.282Z,4.07
2023-01-01T05:29:20.259Z,4.31
2023-01-01T05:32:23.223Z,4.11
2023-01-01T05:35:26.761Z,4.28
2023-01-01T05:38:29.070Z,4.00
2023-01-01T05:41:31.690Z,4.11
2023-01-01T05:44:33.817Z,4.28
2023-01-01T05:47:35.968Z,4.27
2023-01-01T05:50:38.091Z,4.44
2023-01-01T05:53:40.351Z,4.45
2023-01-01T05:56:42.395Z,4.22
2023-01-01T05:59:44.342Z,4.25
2023-01-01T06:02:46.461Z,4.09
2023-01-01T06:05:49.085Z,3.97
2023-01-01T06:09:00.568Z,4.10
2023-01-01T06:12:02.849Z,4.14
2023-01-01T06:15:05.555Z,4.15
2023-01-01T06:18:08.233Z,4.15
2023-01-01T06:21:11.501Z,4.09
2023-01-01T06:24:14.166Z,4.22
2023-01-01T06:27:16.534Z,4.09
2023-01-01T06:30:19.094Z,4.18
2023-01-01T06:33:21.452Z,4.04
2023-01-01T06:36:25.448Z,3.92
2023-01-01T06:39:27.496Z,3.95
2023-01-01T06:42:33.813Z,4.17
2023-01-01T06:45:36.316Z,4.09
2023-01-01T06:48:40.148Z,4.25
2023-01-01T06:51:44.168Z,4.23
2023-01-01T06:54:46.187Z,4.45
2023-01-01T06:57:52.335Z,4.55
2023-01-01T07:00:55.044Z,4.47
2023-01-01T07:04:02.433Z,4.64
2023-01-01T07:07:04.523Z,4.74
2023-01-01T07:10:06.994Z,4.48
2023-01-01T07:13:08.926Z,4.42
2023-01-01T07:16:13.303Z,4.67
2023-01-01T07:19:15.905Z,4.74
2023-01-01T07:22:18.105Z,4.60
2023-01-01T07:25:20.579Z,4.46
2023-01-01T07:28:24.622Z,4.57
2023-01-01T07:31:26.767Z,4.53
2023-01-01T07:34:28.888Z,4.28
2023-01-01T07:37:31.024Z,4.53
2023-01-01T07:40:33.427Z,4.61
2023-01-01T07:43:35.947Z,4.34
2023-01-01T07:46:38.095Z,4.47
2023-01-01T07:49:40.103Z,4.45
2023-01-01T07:52:42.107Z,4.40
2023-01-01T07:55:45.948Z,4.59
2023-01-01T07:58:48.089Z,4.47
2023-01-01T08:01:50.327Z,4.73
2023-01-01T08:04:52.705Z,4.75
2023-01-01T08:07:55.132Z,4.69
2023-01-01T08:11:03.753Z,4.66
2023-01-01T08:14:06.393Z,4.84
2023-01-01T08:17:08.383Z,4.79
2023-01-01T08:20:11.116Z,4.90
2023-01-01T08:23:16.467Z,4.87
2023-01-01T08:26:27.044Z,5.00
2023-01-01T08:29:29.385Z,5.13
2023-01-01T08:32:31.639Z,4.85
2023-01-01T08:35:36.366Z,4.76
2023-01-01T08:38:39.002Z,4.68
2023-01-01T08:41:41.673Z,4.89
2023-01-01T08:44:43.916Z,5.18
2023-01-01T08:47:46.281Z,5.38
2023-01-01T08:50:55.578Z,5.54
2023-01-01T08:53:58.144Z,5.41
2023-01-01T08:57:00.185Z,5.43
2023-01-01T09:00:02.725Z,5.50
2023-01-01T09:03:05.231Z,5.53
2023-01-01T09:06:07.616Z,5.46
2023-01-01T09:09:10.068Z,5.60
2023-01-01T09:12:18.260Z,5.67
2023-01-01T09:15:20.627Z,5.82
2023-01-01T09:18:23.289Z,5.48
2023-01-01T09:21:25.862Z,5.35
2023-01-01T09:24:27.967Z,5.43
2023-01-01T09:27:30.248Z,5.52
2023-01-01T09:30:32.924Z,5.26
2023-01-01T09:33:36.378Z,5.15
2023-01-01T09:36:38.438Z,5.41
2023-01-01T09:39:40.468Z,5.32
2023-01-01T09:42:54.094Z,5.38
2023-01-01T09:46:15.239Z,5.25
2023-01-01T09:49:45.989Z,5.40
2023-01-01T09:52:59.296Z,5.35
2023-01-01T09:56:04.647Z,5.54
2023-01-01T09:59:11.075Z,5.55
2023-01-01T10:02:31.896Z,5.43
2023-01-01T10:05:52.246Z,5.33
2023-01-01T10:09:13.252Z,5.31
2023-01-01T10:12:23.667Z,5.43
2023-01-01T10:15:44.253Z,5.24
2023-01-01T10:18:51.504Z,5.16
2023-01-01T10:21:58.295Z,5.12
2023-01-01T10:25:27.738Z,5.23
2023-01-01T10:28:38.936Z,5.37
2023-01-01T10:31:51.280Z,5.40
2023-01-01T10:34:53.894Z,5.55
2023-01-01T10:37:56.237Z,5.56
2023-01-01T10:41:12.232Z,5.72
2023-01-01T10:44:28.966Z,5.80
2023-01-01T10:47:31.560Z,5.69
2023-01-01T10:50:51.779Z,5.52
2023-01-01T10:53:58.557Z,5.38
2023-01-01T10:57:29.681Z,5.71
2023-01-01T11:00:34.806Z,5.99
2023-01-01T11:03:52.997Z,5.92
2023-01-01T11:06:55.484Z,5.94
2023-01-01T11:10:06.931Z,5.98
2023-01-01T11:13:20.639Z,6.18
2023-01-01T11:16:22.957Z,6.30
2023-01-01T11:19:34.605Z,6.26
2023-01-01T11:22:41.950Z,6.39
2023-01-01T11:26:07.532Z,6.13
2023-01-01T11:29:30.051Z,6.18
2023-01-01T11:32:37.016Z,6.01
2023-01-01T11:35:50.939Z,6.07
2023-01-01T11:39:08.433Z,6.10
2023-01-01T11:42:18.474Z,6.08
2023-01-01T11:45:24.226Z,6.23
2023-01-01T11:48:31.392Z,6.30
2023-01-01T11:51:34.245Z,6.38
2023-01-01T11:54:38.436Z,6.64
2023-01-01T11:57:47.777Z,6.52
2023-01-01T12:00:55.393Z,6.42
2023-01-01T12:04:14.462Z,6.38
2023-01-01T12:07:23.244Z,6.37
2023-01-01T12:10:31.691Z,6.54
2023-01-01T12:13:53.050Z,6.42
2023-01-01T12:17:00.366Z,6.42
2023-01-01T12:20:15.867Z,6.52
2023-01-01T12:23:19.396Z,6.44
2023-01-01T12:26:53.888Z,6.73
2023-01-01T12:30:23.956Z,6.56
2023-01-01T12:33:51.607Z,6.72
2023-01-01T12:37:07.505Z,6.63
2023-01-01T12:40:35.232Z,6.65
2023-01-01T12:43:47.923Z,6.66
2023-01-01T12:47:31.964Z,6.63
2023-01-01T12:50:54.257Z,6.78
2023-01-01T12:54:24.704Z,6.87
2023-01-01T12:57:41.311Z,6.89
2023-01-01T13:00:52.476Z,6.81
2023-01-01T13:04:02.344Z,6.85
2023-01-01T13:07:12.002Z,6.85
2023-01-01T13:10:25.968Z,6.87
2023-01-01T13:13:28.215Z,6.93
2023-01-01T13:16:48.479Z,6.77
2023-01-01T13:20:00.325Z,6.76
2023-01-01T13:23:02.601Z,6.80
2023-01-01T13:26:23.114Z,6.79
2023-01-01T13:29:31.779Z,6.85
2023-01-01T13:33:15.791Z,6.82
2023-01-01T13:36:20.812Z,6.84
2023-01-01T13:39:51.144Z,6.88
2023-01-01T13:42:57.615Z,6.93
2023-01-01T13:46:13.797Z,6.76
2023-01-01T13:49:38.931Z,6.80
2023-01-01T13:52:50.132Z,6.73
2023-01-01T13:56:13.215Z,6.75
2023-01-01T13:59:40.225Z,6.64
2023-01-01T14:02:50.421Z,6.69
2023-01-01T14:05:58.104Z,6.67
2023-01-01T14:09:13.626Z,6.80
2023-01-01T14:12:20.842Z,6.87
2023-01-01T14:15:33.156Z,6.80
2023-01-01T14:18:40.619Z,6.81
2023-01-01T14:21:43.405Z,6.83
2023-01-01T14:24:47.706Z,6.79
2023-01-01T14:27:49.733Z,6.71
2023-01-01T14:30:54.868Z,6.74
2023-01-01T14:33:57.459Z,6.69
2023-01-01T14:37:03.072Z,6.70
2023-01-01T14:40:26.593Z,6.69
2023-01-01T14:43:28.618Z,6.76
2023-01-01T14:46:31.453Z,6.90
2023-01-01T14:49:38.963Z,6.79
2023-01-01T14:52:41.117Z,6.75
2023-01-01T14:55:46.036Z,6.75
2023-01-01T14:58:49.142Z,6.75
2023-01-01T15:02:12.274Z,6.76
2023-01-01T15:05:23.529Z,6.75
2023-01-01T15:08:27.362Z,6.76
2023-01-01T15:11:29.638Z,6.94
2023-01-01T15:14:38.259Z,6.93
2023-01-01T15:17:47.489Z,7.11
2023-01-01T15:20:55.758Z,6.98
2023-01-01T15:24:02.622Z,6.95
2023-01-01T15:27:07.448Z,6.97
2023-01-01T15:30:24.684Z,7.00
2023-01-01T15:33:27.290Z,6.98
2023-01-01T15:36:29.453Z,7.01
2023-01-01T15:39:32.581Z,7.01
2023-01-01T15:42:40.573Z,6.99
2023-01-01T15:45:51.630Z,6.98
2023-01-01T15:48:53.712Z,7.03
2023-01-01T15:51:59.248Z,6.98
2023-01-01T15:55:01.909Z,7.00
2023-01-01T15:58:04.747Z,6.99
2023-01-01T16:01:11.273Z,7.05
2023-01-01T16:04:13.372Z,7.06
2023-01-01T16:07:20.956Z,7.05
2023-01-01T16:10:23.598Z,7.09
2023-01-01T16:13:27.696Z,7.06
2023-01-01T16:16:31.191Z,7.10
2023-01-01T16:19:34.175Z,7.16
2023-01-01T16:22:37.123Z,7.17
2023-01-01T16:25:39.562Z,7.21
2023-01-01T16:28:41.880Z,7.17
2023-01-01T16:31:45.975Z,7.18
2023-01-01T16:34:48.639Z,7.17
2023-01-01T16:37:51.006Z,7.23
2023-01-01T16:40:55.695Z,7.23
2023-01-01T16:43:58.130Z,7.22
2023-01-01T16:47:00.616Z,7.22
2023-01-01T16:50:03.280Z,7.28
2023-01-01T16:53:06.972Z,7.32
2023-01-01T16:56:11.819Z,7.32
2023-01-01T16:59:16.703Z,7.46
2023-01-01T17:02:18.993Z,7.46
2023-01-01T17:05:22.339Z,7.49
2023-01-01T17:08:28.010Z,7.61
2023-01-01T17:11:30.147Z,7.55
2023-01-01T17:14:32.890Z,7.56
2023-01-01T17:17:35.148Z,7.57
2023-01-01T17:20:40.401Z,7.57
2023-01-01T17:23:42.472Z,7.58
2023-01-01T17:26:45.137Z,7.63
2023-01-01T17:29:47.340Z,7.61
2023-01-01T17:32:49.509Z,7.69
2023-01-01T17:35:55.335Z,7.65
2023-01-01T17:38:57.698Z,7.71
2023-01-01T17:42:01.803Z,7.69
2023-01-01T17:45:07.423Z,7.72
2023-01-01T17:48:09.877Z,7.75
2023-01-01T17:51:14.394Z,7.75
2023-01-01T17:54:19.058Z,7.82
2023-01-01T17:57:21.397Z,7.81
2023-01-01T18:00:23.336Z,7.82
2023-01-01T18:03:26.294Z,7.82
2023-01-01T18:06:29.999Z,7.82
2023-01-01T18:09:32.231Z,7.79
2023-01-01T18:12:34.388Z,7.80
2023-01-01T18:15:38.446Z,7.86
2023-01-01T18:18:41.156Z,7.85
2023-01-01T18:21:43.958Z,7.87
2023-01-01T18:24:46.179Z,7.89
2023-01-01T18:27:52.532Z,7.89
2023-01-01T18:31:08.721Z,7.90
2023-01-01T18:34:11.579Z,8.01
2023-01-01T18:37:13.455Z,7.95
2023-01-01T18:40:21.910Z,8.00
2023-01-01T18:43:27.744Z,7.97
2023-01-01T18:46:30.046Z,7.93
2023-01-01T18:49:41.481Z,7.94
2023-01-01T18:52:43.527Z,7.97
2023-01-01T18:55:52.433Z,7.96
2023-01-01T18:58:57.680Z,7.90
2023-01-01T19:02:00.528Z,7.92
2023-01-01T19:05:16.442Z,7.99
2023-01-01T19:08:21.318Z,7.96
2023-01-01T19:11:23.503Z,7.98
2023-01-01T19:14:30.862Z,7.97
2023-01-01T19:17:33.499Z,7.97
2023-01-01T19:20:37.966Z,7.90
2023-01-01T19:23:51.348Z,8.07
2023-01-01T19:27:12.411Z,8.20
2023-01-01T19:30:25.713Z,8.01
2023-01-01T19:33:29.719Z,7.98
2023-01-01T19:36:34.535Z,7.95
2023-01-01T19:39:38.116Z,8.00
2023-01-01T19:42:41.906Z,8.05
2023-01-01T19:45:45.191Z,8.07
2023-01-01T19:48:49.293Z,8.03
2023-01-01T19:51:51.528Z,8.04
2023-01-01T19:54:55.404Z,7.98
2023-01-01T19:57:58.066Z,7.94
2023-01-01T20:01:00.511Z,8.03
2023-01-01T20:04:06.348Z,8.09
2023-01-01T20:07:09.073Z,8.20
2023-01-01T20:10:12.907Z,8.29
2023-01-01T20:13:15.624Z,8.07
2023-01-01T20:16:21.301Z,8.05
2023-01-01T20:19:23.827Z,8.00
2023-01-01T20:22:29.845Z,8.00
2023-01-01T20:25:37.650Z,8.10
2023-01-01T20:28:58.635Z,8.10
2023-01-01T20:32:02.700Z,8.07
2023-01-01T20:35:05.186Z,8.03
2023-01-01T20:38:10.065Z,8.12
2023-01-01T20:41:24.791Z,8.22
2023-01-01T20:44:29.738Z,8.11
2023-01-01T20:47:32.096Z,8.11
2023-01-01T20:50:35.896Z,8.15
2023-01-01T20:53:37.772Z,8.15
2023-01-01T20:56:40.553Z,8.11
2023-01-01T20:59:44.817Z,8.15
2023-01-01T21:02:49.675Z,8.23
2023-01-01T21:05:52.077Z,8.21
2023-01-01T21:08:54.187Z,8.20
2023-01-01T21:11:56.499Z,8.13
2023-01-01T21:14:58.806Z,8.21
2023-01-01T21:18:03.695Z,8.13
2023-01-01T21:21:31.412Z,8.10
2023-01-01T21:24:37.759Z,8.14
2023-01-01T21:27:40.302Z,8.10
2023-01-01T21:30:51.323Z,8.09
2023-01-01T21:33:53.553Z,8.15
2023-01-01T21:37:38.397Z,8.21
2023-01-01T21:40:51.202Z,8.18
2023-01-01T21:43:58.120Z,8.13
2023-01-01T21:47:02.315Z,8.12
2023-01-01T21:50:23.627Z,8.22
2023-01-01T21:53:32.992Z,8.23
2023-01-01T21:56:41.261Z,8.20
2023-01-01T21:59:47.599Z,8.13
2023-01-01T22:02:50.875Z,8.14
2023-01-01T22:05:59.022Z,8.16
2023-01-01T22:09:02.222Z,8.12
2023-01-01T22:12:19.079Z,8.13
2023-01-01T22:15:31.129Z,8.04
2023-01-01T22:18:39.105Z,8.09
2023-01-01T22:21:41.676Z,8.14
2023-01-01T22:24:47.502Z,8.24
2023-01-01T22:27:51.112Z,8.15
2023-01-01T22:30:57.776Z,8.15
2023-01-01T22:34:02.241Z,7.93
2023-01-01T22:37:15.746Z,7.84
2023-01-01T22:40:33.053Z,7.97
2023-01-01T22:43:39.279Z,7.82
2023-01-01T22:46:42.180Z,7.72
2023-01-01T22:49:51.582Z,7.63
2023-01-01T22:52:53.924Z,7.57
2023-01-01T22:55:56.180Z,7.58
2023-01-01T22:58:58.611Z,7.49
2023-01-01T23:02:01.003Z,7.55
2023-01-01T23:05:03.399Z,7.60
2023-01-01T23:08:07.513Z,7.56
2023-01-01T23:11:10.935Z,7.51
2023-01-01T23:14:37.069Z,7.62
2023-01-01T23:17:41.348Z,7.67
2023-01-01T23:20:44.423Z,7.47
2023-01-01T23:23:50.073Z,7.34
2023-01-01T23:26:53.887Z,7.39
2023-01-01T23:29:57.045Z,7.29
2023-01-01T23:32:59.509Z,7.32
2023-01-01T23:36:04.412Z,7.32
2023-01-01T23:39:06.561Z,7.25
2023-01-01T23:42:10.535Z,7.25
2023-01-01T23:45:12.538Z,7.19
2023-01-01T23:48:15.970Z,7.31
2023-01-01T23:51:19.303Z,7.22
2023-01-01T23:54:21.222Z,7.18
2023-01-01T23:57:23.273Z,7.07
